Luba, Equatorial Guinea
Current Conditions -  °F | °C
As of 9:00 AM on Sunday 26 Oct 2014 (Local Time) from FKKD Reporting Station
Thunderstorm Thunderstorm  
Wind Chill: 75°   Ceiling: 1000
Heat Index: 75°   Visibility: 4mi
Dew Point: 73°   Wind: 0mph
Humidity: 94%   Direction: NA
Pressure: 29.94"   Gusts: NA
Location:  3.46°N, 8.55°E
Report Text: FKKD 260800Z 00000KT 7000 -TSRA SCT006 BKN010 SCT016CB BKN10024/23 Q1014 NOSIG
Loading
Personal Weather Stations






























Interactive Weather Map New forecast layout! Learn more

10-Day Weather Forecast

Advertisements
Track Severe Weather on mobile